sensor_id;sensor_type;location;lat;lon;timestamp;P1;durP1;ratioP1;P2;durP2;ratioP2
20593;SDS011;10455;48.732;10.266;2023-05-07T00:03:28;5.67;;;4.77;;
20593;SDS011;10455;48.732;10.266;2023-05-07T00:08:32;7.00;;;5.37;;
20593;SDS011;10455;48.732;10.266;2023-05-07T00:13:33;5.83;;;5.33;;
20593;SDS011;10455;48.732;10.266;2023-05-07T00:18:36;7.17;;;4.97;;
20593;SDS011;10455;48.732;10.266;2023-05-07T00:23:39;5.63;;;5.23;;
20593;SDS011;10455;48.732;10.266;2023-05-07T00:28:41;5.87;;;5.27;;
20593;SDS011;10455;48.732;10.266;2023-05-07T00:33:43;6.43;;;5.70;;
20593;SDS011;10455;48.732;10.266;2023-05-07T00:38:46;6.10;;;5.60;;
20593;SDS011;10455;48.732;10.266;2023-05-07T00:43:48;6.13;;;4.80;;
20593;SDS011;10455;48.732;10.266;2023-05-07T00:48:51;5.87;;;5.40;;
20593;SDS011;10455;48.732;10.266;2023-05-07T00:53:55;6.10;;;5.50;;
20593;SDS011;10455;48.732;10.266;2023-05-07T00:58:57;7.67;;;6.97;;
20593;SDS011;10455;48.732;10.266;2023-05-07T01:03:59;7.87;;;5.83;;
20593;SDS011;10455;48.732;10.266;2023-05-07T01:09:04;6.40;;;5.90;;
20593;SDS011;10455;48.732;10.266;2023-05-07T01:14:06;6.17;;;5.60;;
20593;SDS011;10455;48.732;10.266;2023-05-07T01:19:09;7.87;;;7.07;;
20593;SDS011;10455;48.732;10.266;2023-05-07T01:24:15;8.03;;;6.13;;
20593;SDS011;10455;48.732;10.266;2023-05-07T01:29:17;7.87;;;6.10;;
20593;SDS011;10455;48.732;10.266;2023-05-07T01:34:19;7.13;;;6.50;;
20593;SDS011;10455;48.732;10.266;2023-05-07T01:39:25;7.73;;;7.03;;
20593;SDS011;10455;48.732;10.266;2023-05-07T01:44:28;6.40;;;5.80;;
20593;SDS011;10455;48.732;10.266;2023-05-07T01:49:30;6.40;;;5.73;;
20593;SDS011;10455;48.732;10.266;2023-05-07T01:54:34;6.63;;;5.63;;
20593;SDS011;10455;48.732;10.266;2023-05-07T01:59:36;7.13;;;6.43;;
20593;SDS011;10455;48.732;10.266;2023-05-07T02:04:38;7.27;;;6.67;;
20593;SDS011;10455;48.732;10.266;2023-05-07T02:09:41;8.10;;;7.30;;
20593;SDS011;10455;48.732;10.266;2023-05-07T02:14:43;8.10;;;7.07;;
20593;SDS011;10455;48.732;10.266;2023-05-07T02:19:45;7.97;;;7.27;;
20593;SDS011;10455;48.732;10.266;2023-05-07T02:24:48;8.43;;;7.63;;
20593;SDS011;10455;48.732;10.266;2023-05-07T02:29:50;7.37;;;6.63;;
20593;SDS011;10455;48.732;10.266;2023-05-07T02:34:52;9.30;;;8.50;;
20593;SDS011;10455;48.732;10.266;2023-05-07T02:39:55;10.80;;;9.80;;
20593;SDS011;10455;48.732;10.266;2023-05-07T02:44:57;7.20;;;6.60;;
20593;SDS011;10455;48.732;10.266;2023-05-07T02:49:59;8.40;;;7.47;;
20593;SDS011;10455;48.732;10.266;2023-05-07T02:55:02;7.90;;;7.27;;
20593;SDS011;10455;48.732;10.266;2023-05-07T03:00:11;7.90;;;7.10;;
20593;SDS011;10455;48.732;10.266;2023-05-07T03:05:14;6.90;;;6.20;;
20593;SDS011;10455;48.732;10.266;2023-05-07T03:10:18;7.73;;;7.10;;
20593;SDS011;10455;48.732;10.266;2023-05-07T03:15:20;7.07;;;6.47;;
20593;SDS011;10455;48.732;10.266;2023-05-07T03:20:22;8.40;;;7.70;;
20593;SDS011;10455;48.732;10.266;2023-05-07T03:25:25;8.77;;;8.07;;
20593;SDS011;10455;48.732;10.266;2023-05-07T03:30:27;11.07;;;10.03;;
20593;SDS011;10455;48.732;10.266;2023-05-07T03:35:29;9.50;;;8.70;;
20593;SDS011;10455;48.732;10.266;2023-05-07T03:40:32;12.90;;;11.70;;
20593;SDS011;10455;48.732;10.266;2023-05-07T03:45:34;9.70;;;8.90;;
20593;SDS011;10455;48.732;10.266;2023-05-07T03:50:37;9.57;;;8.77;;
20593;SDS011;10455;48.732;10.266;2023-05-07T03:55:40;9.10;;;8.30;;
20593;SDS011;10455;48.732;10.266;2023-05-07T04:00:42;8.37;;;7.67;;
20593;SDS011;10455;48.732;10.266;2023-05-07T04:05:44;9.17;;;8.33;;
20593;SDS011;10455;48.732;10.266;2023-05-07T04:10:47;10.03;;;8.53;;
20593;SDS011;10455;48.732;10.266;2023-05-07T04:15:49;11.27;;;10.23;;
20593;SDS011;10455;48.732;10.266;2023-05-07T04:20:51;13.87;;;12.57;;
20593;SDS011;10455;48.732;10.266;2023-05-07T04:25:54;12.03;;;11.03;;
20593;SDS011;10455;48.732;10.266;2023-05-07T04:30:57;11.37;;;10.30;;
20593;SDS011;10455;48.732;10.266;2023-05-07T04:36:00;10.43;;;8.90;;
20593;SDS011;10455;48.732;10.266;2023-05-07T04:41:05;8.17;;;7.47;;
20593;SDS011;10455;48.732;10.266;2023-05-07T04:46:07;8.87;;;8.03;;
20593;SDS011;10455;48.732;10.266;2023-05-07T04:51:09;9.73;;;8.73;;
20593;SDS011;10455;48.732;10.266;2023-05-07T04:56:13;10.97;;;7.30;;
20593;SDS011;10455;48.732;10.266;2023-05-07T05:01:15;8.17;;;7.00;;
20593;SDS011;10455;48.732;10.266;2023-05-07T05:06:16;7.33;;;6.73;;
20593;SDS011;10455;48.732;10.266;2023-05-07T05:11:20;7.00;;;6.30;;
20593;SDS011;10455;48.732;10.266;2023-05-07T05:16:22;6.80;;;6.20;;
20593;SDS011;10455;48.732;10.266;2023-05-07T05:21:23;7.00;;;6.30;;
20593;SDS011;10455;48.732;10.266;2023-05-07T05:26:27;5.83;;;4.90;;
20593;SDS011;10455;48.732;10.266;2023-05-07T05:31:29;5.87;;;5.30;;
20593;SDS011;10455;48.732;10.266;2023-05-07T05:36:32;5.70;;;4.90;;
20593;SDS011;10455;48.732;10.266;2023-05-07T05:41:38;5.57;;;5.17;;
20593;SDS011;10455;48.732;10.266;2023-05-07T05:46:40;5.20;;;4.70;;
20593;SDS011;10455;48.732;10.266;2023-05-07T05:51:42;4.80;;;4.50;;
20593;SDS011;10455;48.732;10.266;2023-05-07T05:56:46;4.57;;;4.10;;
20593;SDS011;10455;48.732;10.266;2023-05-07T06:01:48;4.35;;;4.00;;
20593;SDS011;10455;48.732;10.266;2023-05-07T06:06:49;3.90;;;3.60;;
20593;SDS011;10455;48.732;10.266;2023-05-07T06:11:53;4.28;;;3.90;;
20593;SDS011;10455;48.732;10.266;2023-05-07T06:16:55;3.90;;;3.60;;
20593;SDS011;10455;48.732;10.266;2023-05-07T06:21:57;4.15;;;3.75;;
20593;SDS011;10455;48.732;10.266;2023-05-07T06:27:02;4.03;;;3.03;;
20593;SDS011;10455;48.732;10.266;2023-05-07T06:32:07;4.45;;;3.42;;
20593;SDS011;10455;48.732;10.266;2023-05-07T06:37:09;3.30;;;3.00;;
20593;SDS011;10455;48.732;10.266;2023-05-07T06:42:13;4.30;;;2.90;;
20593;SDS011;10455;48.732;10.266;2023-05-07T06:47:15;4.88;;;3.30;;
20593;SDS011;10455;48.732;10.266;2023-05-07T06:52:17;4.05;;;3.10;;
20593;SDS011;10455;48.732;10.266;2023-05-07T06:57:20;3.35;;;3.08;;
20593;SDS011;10455;48.732;10.266;2023-05-07T07:02:22;3.28;;;3.00;;
20593;SDS011;10455;48.732;10.266;2023-05-07T07:07:24;3.78;;;3.47;;
20593;SDS011;10455;48.732;10.266;2023-05-07T07:12:27;3.85;;;3.50;;
20593;SDS011;10455;48.732;10.266;2023-05-07T07:17:29;4.18;;;3.67;;
20593;SDS011;10455;48.732;10.266;2023-05-07T07:22:31;3.80;;;3.45;;
20593;SDS011;10455;48.732;10.266;2023-05-07T07:27:35;2.90;;;2.70;;
20593;SDS011;10455;48.732;10.266;2023-05-07T07:32:37;3.00;;;2.70;;
20593;SDS011;10455;48.732;10.266;2023-05-07T07:37:39;3.70;;;2.60;;
20593;SDS011;10455;48.732;10.266;2023-05-07T07:42:42;4.03;;;2.88;;
20593;SDS011;10455;48.732;10.266;2023-05-07T07:47:44;3.33;;;3.00;;
20593;SDS011;10455;48.732;10.266;2023-05-07T07:52:48;3.35;;;3.05;;
20593;SDS011;10455;48.732;10.266;2023-05-07T07:57:51;3.67;;;3.38;;
20593;SDS011;10455;48.732;10.266;2023-05-07T08:02:53;2.90;;;2.65;;
20593;SDS011;10455;48.732;10.266;2023-05-07T08:07:55;2.80;;;2.50;;
20593;SDS011;10455;48.732;10.266;2023-05-07T08:12:58;2.55;;;2.22;;
20593;SDS011;10455;48.732;10.266;2023-05-07T08:18:01;2.70;;;2.50;;
20593;SDS011;10455;48.732;10.266;2023-05-07T08:23:03;3.03;;;2.33;;
20593;SDS011;10455;48.732;10.266;2023-05-07T08:28:07;2.97;;;2.78;;
20593;SDS011;10455;48.732;10.266;2023-05-07T08:33:09;3.13;;;2.58;;
20593;SDS011;10455;48.732;10.266;2023-05-07T08:38:11;2.33;;;2.22;;
20593;SDS011;10455;48.732;10.266;2023-05-07T08:43:14;3.05;;;2.20;;
20593;SDS011;10455;48.732;10.266;2023-05-07T08:48:17;2.90;;;2.60;;
20593;SDS011;10455;48.732;10.266;2023-05-07T08:53:26;2.65;;;2.45;;
20593;SDS011;10455;48.732;10.266;2023-05-07T08:58:29;2.72;;;2.28;;
20593;SDS011;10455;48.732;10.266;2023-05-07T09:03:31;3.25;;;2.42;;
20593;SDS011;10455;48.732;10.266;2023-05-07T09:08:33;3.13;;;2.83;;
20593;SDS011;10455;48.732;10.266;2023-05-07T09:13:37;2.58;;;2.38;;
20593;SDS011;10455;48.732;10.266;2023-05-07T09:18:40;3.28;;;2.92;;
20593;SDS011;10455;48.732;10.266;2023-05-07T09:23:42;2.78;;;2.58;;
20593;SDS011;10455;48.732;10.266;2023-05-07T09:28:46;3.67;;;3.38;;
20593;SDS011;10455;48.732;10.266;2023-05-07T09:33:47;4.70;;;3.90;;
20593;SDS011;10455;48.732;10.266;2023-05-07T09:38:49;3.30;;;3.00;;
20593;SDS011;10455;48.732;10.266;2023-05-07T09:43:54;3.33;;;3.05;;
20593;SDS011;10455;48.732;10.266;2023-05-07T09:48:57;3.95;;;3.58;;
20593;SDS011;10455;48.732;10.266;2023-05-07T09:53:59;3.10;;;2.85;;
20593;SDS011;10455;48.732;10.266;2023-05-07T09:59:04;3.10;;;2.90;;
20593;SDS011;10455;48.732;10.266;2023-05-07T10:04:08;3.08;;;2.70;;
20593;SDS011;10455;48.732;10.266;2023-05-07T10:09:10;4.43;;;2.67;;
20593;SDS011;10455;48.732;10.266;2023-05-07T10:14:14;2.80;;;2.60;;
20593;SDS011;10455;48.732;10.266;2023-05-07T10:19:16;2.55;;;2.25;;
20593;SDS011;10455;48.732;10.266;2023-05-07T10:24:21;2.40;;;2.30;;
20593;SDS011;10455;48.732;10.266;2023-05-07T10:29:33;4.85;;;2.35;;
20593;SDS011;10455;48.732;10.266;2023-05-07T10:34:39;2.60;;;2.40;;
20593;SDS011;10455;48.732;10.266;2023-05-07T10:39:44;3.72;;;3.35;;
20593;SDS011;10455;48.732;10.266;2023-05-07T10:44:47;3.00;;;2.70;;
20593;SDS011;10455;48.732;10.266;2023-05-07T10:50:20;2.20;;;2.10;;
20593;SDS011;10455;48.732;10.266;2023-05-07T10:55:23;2.08;;;1.98;;
20593;SDS011;10455;48.732;10.266;2023-05-07T11:05:46;2.17;;;2.08;;
20593;SDS011;10455;48.732;10.266;2023-05-07T11:10:50;2.65;;;2.30;;
20593;SDS011;10455;48.732;10.266;2023-05-07T11:15:54;3.03;;;2.42;;
20593;SDS011;10455;48.732;10.266;2023-05-07T11:20:56;2.55;;;2.35;;
20593;SDS011;10455;48.732;10.266;2023-05-07T11:25:59;2.30;;;2.10;;
20593;SDS011;10455;48.732;10.266;2023-05-07T11:31:05;2.60;;;2.15;;
20593;SDS011;10455;48.732;10.266;2023-05-07T11:36:07;2.40;;;2.20;;
20593;SDS011;10455;48.732;10.266;2023-05-07T11:41:10;2.67;;;2.47;;
20593;SDS011;10455;48.732;10.266;2023-05-07T11:46:13;2.38;;;2.17;;
20593;SDS011;10455;48.732;10.266;2023-05-07T11:51:18;2.33;;;2.13;;
20593;SDS011;10455;48.732;10.266;2023-05-07T11:56:20;2.55;;;2.22;;
20593;SDS011;10455;48.732;10.266;2023-05-07T12:01:24;2.97;;;2.70;;
20593;SDS011;10455;48.732;10.266;2023-05-07T12:06:26;2.42;;;2.20;;
20593;SDS011;10455;48.732;10.266;2023-05-07T12:11:27;2.53;;;2.33;;
20593;SDS011;10455;48.732;10.266;2023-05-07T12:16:31;2.50;;;2.30;;
20593;SDS011;10455;48.732;10.266;2023-05-07T12:21:33;2.50;;;2.20;;
20593;SDS011;10455;48.732;10.266;2023-05-07T12:26:37;2.45;;;2.35;;
20593;SDS011;10455;48.732;10.266;2023-05-07T12:31:42;3.05;;;2.55;;
20593;SDS011;10455;48.732;10.266;2023-05-07T12:36:44;3.65;;;2.72;;
20593;SDS011;10455;48.732;10.266;2023-05-07T12:41:52;2.28;;;2.10;;
20593;SDS011;10455;48.732;10.266;2023-05-07T12:46:56;2.60;;;2.40;;
20593;SDS011;10455;48.732;10.266;2023-05-07T12:51:58;2.83;;;2.63;;
20593;SDS011;10455;48.732;10.266;2023-05-07T12:57:01;3.20;;;3.00;;
20593;SDS011;10455;48.732;10.266;2023-05-07T13:02:05;3.83;;;3.38;;
20593;SDS011;10455;48.732;10.266;2023-05-07T13:07:08;3.83;;;3.10;;
20593;SDS011;10455;48.732;10.266;2023-05-07T13:12:10;2.95;;;2.70;;
20593;SDS011;10455;48.732;10.266;2023-05-07T13:17:13;2.70;;;2.50;;
20593;SDS011;10455;48.732;10.266;2023-05-07T13:22:15;3.42;;;2.63;;
20593;SDS011;10455;48.732;10.266;2023-05-07T13:27:17;2.85;;;2.65;;
20593;SDS011;10455;48.732;10.266;2023-05-07T13:32:20;3.03;;;2.42;;
20593;SDS011;10455;48.732;10.266;2023-05-07T13:37:22;3.75;;;2.40;;
20593;SDS011;10455;48.732;10.266;2023-05-07T13:42:24;2.75;;;2.55;;
20593;SDS011;10455;48.732;10.266;2023-05-07T13:47:28;2.97;;;2.65;;
20593;SDS011;10455;48.732;10.266;2023-05-07T13:52:29;2.88;;;2.67;;
20593;SDS011;10455;48.732;10.266;2023-05-07T13:57:31;3.03;;;2.70;;
20593;SDS011;10455;48.732;10.266;2023-05-07T14:02:35;2.60;;;2.40;;
20593;SDS011;10455;48.732;10.266;2023-05-07T14:07:37;3.10;;;2.78;;
20593;SDS011;10455;48.732;10.266;2023-05-07T14:12:38;3.70;;;2.75;;
20593;SDS011;10455;48.732;10.266;2023-05-07T14:17:42;3.17;;;2.88;;
20593;SDS011;10455;48.732;10.266;2023-05-07T14:22:44;3.00;;;2.65;;
20593;SDS011;10455;48.732;10.266;2023-05-07T14:27:45;3.33;;;3.03;;
20593;SDS011;10455;48.732;10.266;2023-05-07T14:32:49;2.88;;;2.67;;
20593;SDS011;10455;48.732;10.266;2023-05-07T14:37:51;2.78;;;2.58;;
20593;SDS011;10455;48.732;10.266;2023-05-07T14:42:52;5.40;;;3.13;;
20593;SDS011;10455;48.732;10.266;2023-05-07T14:47:58;2.95;;;2.75;;
20593;SDS011;10455;48.732;10.266;2023-05-07T14:53:00;2.95;;;2.75;;
20593;SDS011;10455;48.732;10.266;2023-05-07T14:58:02;3.90;;;2.80;;
20593;SDS011;10455;48.732;10.266;2023-05-07T15:03:06;3.30;;;2.85;;
20593;SDS011;10455;48.732;10.266;2023-05-07T15:08:09;2.70;;;2.50;;
20593;SDS011;10455;48.732;10.266;2023-05-07T15:13:11;2.88;;;2.67;;
20593;SDS011;10455;48.732;10.266;2023-05-07T15:18:15;2.85;;;2.40;;
20593;SDS011;10455;48.732;10.266;2023-05-07T15:23:17;2.75;;;2.53;;
20593;SDS011;10455;48.732;10.266;2023-05-07T15:28:19;2.90;;;2.70;;
20593;SDS011;10455;48.732;10.266;2023-05-07T15:33:22;3.40;;;3.10;;
20593;SDS011;10455;48.732;10.266;2023-05-07T15:38:25;5.80;;;2.80;;
20593;SDS011;10455;48.732;10.266;2023-05-07T15:43:27;3.10;;;2.90;;
20593;SDS011;10455;48.732;10.266;2023-05-07T15:48:30;2.70;;;2.50;;
20593;SDS011;10455;48.732;10.266;2023-05-07T15:53:32;4.00;;;2.80;;
20593;SDS011;10455;48.732;10.266;2023-05-07T15:58:34;3.10;;;2.90;;
20593;SDS011;10455;48.732;10.266;2023-05-07T16:03:38;4.13;;;2.80;;
20593;SDS011;10455;48.732;10.266;2023-05-07T16:08:40;3.30;;;3.00;;
20593;SDS011;10455;48.732;10.266;2023-05-07T16:13:43;3.50;;;3.20;;
20593;SDS011;10455;48.732;10.266;2023-05-07T16:18:47;3.13;;;2.92;;
20593;SDS011;10455;48.732;10.266;2023-05-07T16:23:49;3.40;;;3.10;;
20593;SDS011;10455;48.732;10.266;2023-05-07T16:28:51;3.85;;;2.85;;
20593;SDS011;10455;48.732;10.266;2023-05-07T16:33:54;3.22;;;2.92;;
20593;SDS011;10455;48.732;10.266;2023-05-07T16:38:56;3.63;;;3.33;;
20593;SDS011;10455;48.732;10.266;2023-05-07T16:43:58;3.30;;;3.10;;
20593;SDS011;10455;48.732;10.266;2023-05-07T16:49:01;3.38;;;3.13;;
20593;SDS011;10455;48.732;10.266;2023-05-07T16:54:03;3.30;;;3.10;;
20593;SDS011;10455;48.732;10.266;2023-05-07T16:59:05;3.30;;;3.10;;
20593;SDS011;10455;48.732;10.266;2023-05-07T17:04:08;3.92;;;3.30;;
20593;SDS011;10455;48.732;10.266;2023-05-07T17:09:10;4.18;;;3.28;;
20593;SDS011;10455;48.732;10.266;2023-05-07T17:14:12;3.67;;;3.20;;
20593;SDS011;10455;48.732;10.266;2023-05-07T17:19:15;4.93;;;3.47;;
20593;SDS011;10455;48.732;10.266;2023-05-07T17:24:17;3.28;;;2.97;;
20593;SDS011;10455;48.732;10.266;2023-05-07T17:29:19;3.13;;;2.90;;
20593;SDS011;10455;48.732;10.266;2023-05-07T17:34:22;6.28;;;3.00;;
20593;SDS011;10455;48.732;10.266;2023-05-07T17:39:24;2.90;;;2.70;;
20593;SDS011;10455;48.732;10.266;2023-05-07T17:44:26;2.95;;;2.75;;
20593;SDS011;10455;48.732;10.266;2023-05-07T17:49:30;3.45;;;3.17;;
20593;SDS011;10455;48.732;10.266;2023-05-07T17:54:31;3.25;;;2.95;;
20593;SDS011;10455;48.732;10.266;2023-05-07T17:59:33;3.78;;;3.13;;
20593;SDS011;10455;48.732;10.266;2023-05-07T18:04:37;4.32;;;3.50;;
20593;SDS011;10455;48.732;10.266;2023-05-07T18:09:39;5.63;;;4.85;;
20593;SDS011;10455;48.732;10.266;2023-05-07T18:14:41;6.13;;;5.72;;
20593;SDS011;10455;48.732;10.266;2023-05-07T18:19:44;9.52;;;8.10;;
20593;SDS011;10455;48.732;10.266;2023-05-07T18:24:46;13.75;;;12.38;;
20593;SDS011;10455;48.732;10.266;2023-05-07T18:29:48;18.27;;;14.57;;
20593;SDS011;10455;48.732;10.266;2023-05-07T18:34:52;26.67;;;21.20;;
20593;SDS011;10455;48.732;10.266;2023-05-07T18:39:54;25.65;;;19.83;;
20593;SDS011;10455;48.732;10.266;2023-05-07T18:44:56;29.88;;;20.77;;
20593;SDS011;10455;48.732;10.266;2023-05-07T18:49:59;27.85;;;20.27;;
20593;SDS011;10455;48.732;10.266;2023-05-07T18:55:01;24.40;;;20.85;;
20593;SDS011;10455;48.732;10.266;2023-05-07T19:00:04;18.10;;;14.00;;
20593;SDS011;10455;48.732;10.266;2023-05-07T19:05:09;19.05;;;11.55;;
20593;SDS011;10455;48.732;10.266;2023-05-07T19:10:12;25.52;;;13.48;;
20593;SDS011;10455;48.732;10.266;2023-05-07T19:15:14;18.27;;;9.68;;
20593;SDS011;10455;48.732;10.266;2023-05-07T19:20:18;14.80;;;8.60;;
20593;SDS011;10455;48.732;10.266;2023-05-07T19:25:20;12.80;;;7.55;;
20593;SDS011;10455;48.732;10.266;2023-05-07T19:30:22;12.02;;;6.20;;
20593;SDS011;10455;48.732;10.266;2023-05-07T19:35:25;0.30;;;0.30;;
20593;SDS011;10455;48.732;10.266;2023-05-07T19:40:27;0.28;;;0.28;;
20593;SDS011;10455;48.732;10.266;2023-05-07T19:45:29;0.20;;;0.20;;
20593;SDS011;10455;48.732;10.266;2023-05-07T19:50:32;0.30;;;0.30;;
20593;SDS011;10455;48.732;10.266;2023-05-07T19:55:36;0.20;;;0.20;;
20593;SDS011;10455;48.732;10.266;2023-05-07T20:00:38;0.20;;;0.20;;
20593;SDS011;10455;48.732;10.266;2023-05-07T20:05:41;0.20;;;0.20;;
20593;SDS011;10455;48.732;10.266;2023-05-07T20:10:43;0.20;;;0.20;;
20593;SDS011;10455;48.732;10.266;2023-05-07T20:15:45;0.20;;;0.20;;
20593;SDS011;10455;48.732;10.266;2023-05-07T20:20:48;0.20;;;0.20;;
20593;SDS011;10455;48.732;10.266;2023-05-07T20:25:50;0.15;;;0.15;;
20593;SDS011;10455;48.732;10.266;2023-05-07T20:30:52;0.20;;;0.20;;
20593;SDS011;10455;48.732;10.266;2023-05-07T20:35:57;0.20;;;0.20;;
20593;SDS011;10455;48.732;10.266;2023-05-07T20:41:03;0.20;;;0.20;;
20593;SDS011;10455;48.732;10.266;2023-05-07T20:46:06;0.20;;;0.20;;
20593;SDS011;10455;48.732;10.266;2023-05-07T20:51:09;0.20;;;0.20;;
20593;SDS011;10455;48.732;10.266;2023-05-07T20:56:12;0.20;;;0.20;;
20593;SDS011;10455;48.732;10.266;2023-05-07T21:01:14;0.20;;;0.20;;
20593;SDS011;10455;48.732;10.266;2023-05-07T21:06:17;0.20;;;0.20;;
20593;SDS011;10455;48.732;10.266;2023-05-07T21:11:19;0.20;;;0.20;;
20593;SDS011;10455;48.732;10.266;2023-05-07T21:16:21;0.30;;;0.30;;
20593;SDS011;10455;48.732;10.266;2023-05-07T21:21:25;0.20;;;0.20;;
20593;SDS011;10455;48.732;10.266;2023-05-07T21:26:27;0.20;;;0.20;;
20593;SDS011;10455;48.732;10.266;2023-05-07T21:31:28;0.40;;;0.40;;
20593;SDS011;10455;48.732;10.266;2023-05-07T21:36:32;0.20;;;0.20;;
20593;SDS011;10455;48.732;10.266;2023-05-07T21:41:34;0.20;;;0.20;;
20593;SDS011;10455;48.732;10.266;2023-05-07T21:46:36;0.20;;;0.20;;
20593;SDS011;10455;48.732;10.266;2023-05-07T21:51:39;0.20;;;0.20;;
20593;SDS011;10455;48.732;10.266;2023-05-07T21:56:41;0.13;;;0.13;;
20593;SDS011;10455;48.732;10.266;2023-05-07T22:01:44;0.20;;;0.20;;
20593;SDS011;10455;48.732;10.266;2023-05-07T22:06:47;0.87;;;0.87;;
20593;SDS011;10455;48.732;10.266;2023-05-07T22:11:49;0.20;;;0.20;;
20593;SDS011;10455;48.732;10.266;2023-05-07T22:16:51;0.20;;;0.20;;
20593;SDS011;10455;48.732;10.266;2023-05-07T22:21:54;0.20;;;0.20;;
20593;SDS011;10455;48.732;10.266;2023-05-07T22:26:56;0.20;;;0.20;;
20593;SDS011;10455;48.732;10.266;2023-05-07T22:31:58;0.20;;;0.20;;
20593;SDS011;10455;48.732;10.266;2023-05-07T22:37:01;0.20;;;0.20;;
20593;SDS011;10455;48.732;10.266;2023-05-07T22:42:03;0.20;;;0.20;;
20593;SDS011;10455;48.732;10.266;2023-05-07T22:47:06;0.20;;;0.20;;
20593;SDS011;10455;48.732;10.266;2023-05-07T22:52:09;0.10;;;0.10;;
20593;SDS011;10455;48.732;10.266;2023-05-07T22:57:11;0.10;;;0.10;;
20593;SDS011;10455;48.732;10.266;2023-05-07T23:02:13;0.10;;;0.10;;
20593;SDS011;10455;48.732;10.266;2023-05-07T23:07:17;0.20;;;0.20;;
20593;SDS011;10455;48.732;10.266;2023-05-07T23:12:18;0.20;;;0.20;;
20593;SDS011;10455;48.732;10.266;2023-05-07T23:17:20;0.20;;;0.20;;
20593;SDS011;10455;48.732;10.266;2023-05-07T23:22:24;0.20;;;0.20;;
20593;SDS011;10455;48.732;10.266;2023-05-07T23:27:26;0.20;;;0.20;;
20593;SDS011;10455;48.732;10.266;2023-05-07T23:32:29;0.20;;;0.20;;
20593;SDS011;10455;48.732;10.266;2023-05-07T23:37:32;0.20;;;0.20;;
20593;SDS011;10455;48.732;10.266;2023-05-07T23:42:34;0.20;;;0.20;;
20593;SDS011;10455;48.732;10.266;2023-05-07T23:47:36;0.20;;;0.20;;
20593;SDS011;10455;48.732;10.266;2023-05-07T23:52:39;0.30;;;0.30;;
20593;SDS011;10455;48.732;10.266;2023-05-07T23:57:41;0.20;;;0.20;;
